Terminal Aerodrome Forecast
Issued by NWS

Home | Current Version | Previous Version | Text Only | Print | Product List | Glossary On
Versions: 1 2 3 4 5 6 7 8 9 10 11 12 13 14 15 16 17 18 19 20 21 22 23
039
FTUS45 KPIH 170058 AAB
TAFSUN
TAF AMD
KSUN 170058Z 1701/1806 14008KT P6SM VCFG SCT008 OVC070
     FM170600 VRB04KT P6SM VCFG SCT008 OVC025
     FM171500 15006KT P6SM SCT070 SCT110
     FM171800 16006KT P6SM BKN070
      AMD LTD TO CLD VIS AND WIND 1706/1714=

USA.gov is the U.S. government's official web portal to all federal, state and local government web resources and services.